sensor_id;sensor_type;location;lat;lon;timestamp;temperature;humidity
51811;DHT22;52468;40.116;18.296;2023-05-16T00:00:54;19.80;78.10
51811;DHT22;52468;40.116;18.296;2023-05-16T00:03:22;19.80;77.90
51811;DHT22;52468;40.116;18.296;2023-05-16T00:05:50;19.80;78.00
51811;DHT22;52468;40.116;18.296;2023-05-16T00:08:18;19.70;78.10
51811;DHT22;52468;40.116;18.296;2023-05-16T00:10:46;19.70;78.40
51811;DHT22;52468;40.116;18.296;2023-05-16T00:13:14;19.70;78.40
51811;DHT22;52468;40.116;18.296;2023-05-16T00:15:42;19.80;78.20
51811;DHT22;52468;40.116;18.296;2023-05-16T00:18:10;19.80;78.30
51811;DHT22;52468;40.116;18.296;2023-05-16T00:20:42;19.80;78.30
51811;DHT22;52468;40.116;18.296;2023-05-16T00:23:10;19.70;78.50
51811;DHT22;52468;40.116;18.296;2023-05-16T00:25:39;19.80;78.50
51811;DHT22;52468;40.116;18.296;2023-05-16T00:28:07;19.80;78.30
51811;DHT22;52468;40.116;18.296;2023-05-16T00:30:36;19.80;78.30
51811;DHT22;52468;40.116;18.296;2023-05-16T00:33:04;19.60;78.50
51811;DHT22;52468;40.116;18.296;2023-05-16T00:35:31;19.60;79.00
51811;DHT22;52468;40.116;18.296;2023-05-16T00:37:59;19.60;78.80
51811;DHT22;52468;40.116;18.296;2023-05-16T00:40:27;19.70;78.80
51811;DHT22;52468;40.116;18.296;2023-05-16T00:42:55;19.70;78.80
51811;DHT22;52468;40.116;18.296;2023-05-16T00:45:23;19.70;78.70
51811;DHT22;52468;40.116;18.296;2023-05-16T00:47:51;19.80;78.70
51811;DHT22;52468;40.116;18.296;2023-05-16T00:50:19;19.70;78.60
51811;DHT22;52468;40.116;18.296;2023-05-16T00:52:47;19.60;78.50
51811;DHT22;52468;40.116;18.296;2023-05-16T00:55:15;19.50;78.80
51811;DHT22;52468;40.116;18.296;2023-05-16T00:57:43;19.60;78.70
51811;DHT22;52468;40.116;18.296;2023-05-16T01:00:12;19.50;79.10
51811;DHT22;52468;40.116;18.296;2023-05-16T01:02:42;19.50;79.00
51811;DHT22;52468;40.116;18.296;2023-05-16T01:05:11;19.60;78.40
51811;DHT22;52468;40.116;18.296;2023-05-16T01:07:39;19.60;78.20
51811;DHT22;52468;40.116;18.296;2023-05-16T01:10:08;19.70;78.00
51811;DHT22;52468;40.116;18.296;2023-05-16T01:13:06;19.60;77.90
51811;DHT22;52468;40.116;18.296;2023-05-16T01:15:43;19.60;77.90
51811;DHT22;52468;40.116;18.296;2023-05-16T01:18:33;19.70;77.40
51811;DHT22;52468;40.116;18.296;2023-05-16T01:21:09;19.60;77.30
51811;DHT22;52468;40.116;18.296;2023-05-16T01:23:48;19.50;77.40
51811;DHT22;52468;40.116;18.296;2023-05-16T01:26:26;19.50;76.90
51811;DHT22;52468;40.116;18.296;2023-05-16T01:28:55;19.30;76.80
51811;DHT22;52468;40.116;18.296;2023-05-16T01:31:23;19.20;76.50
51811;DHT22;52468;40.116;18.296;2023-05-16T01:33:51;19.00;76.70
51811;DHT22;52468;40.116;18.296;2023-05-16T01:36:40;18.90;76.70
51811;DHT22;52468;40.116;18.296;2023-05-16T01:39:17;18.70;77.00
51811;DHT22;52468;40.116;18.296;2023-05-16T01:42:00;18.60;76.80
51811;DHT22;52468;40.116;18.296;2023-05-16T01:47:35;18.40;77.00
51811;DHT22;52468;40.116;18.296;2023-05-16T01:50:16;18.30;77.10
51811;DHT22;52468;40.116;18.296;2023-05-16T01:55:30;18.20;77.20
51811;DHT22;52468;40.116;18.296;2023-05-16T01:58:01;18.10;77.30
51811;DHT22;52468;40.116;18.296;2023-05-16T02:00:30;18.10;77.40
51811;DHT22;52468;40.116;18.296;2023-05-16T02:02:59;18.00;77.50
51811;DHT22;52468;40.116;18.296;2023-05-16T02:05:27;17.90;77.90
51811;DHT22;52468;40.116;18.296;2023-05-16T02:07:55;18.00;78.00
51811;DHT22;52468;40.116;18.296;2023-05-16T02:10:23;17.90;78.10
51811;DHT22;52468;40.116;18.296;2023-05-16T02:12:52;18.00;78.20
51811;DHT22;52468;40.116;18.296;2023-05-16T02:15:20;17.90;78.30
51811;DHT22;52468;40.116;18.296;2023-05-16T02:17:48;17.90;78.20
51811;DHT22;52468;40.116;18.296;2023-05-16T02:20:16;17.80;78.20
51811;DHT22;52468;40.116;18.296;2023-05-16T02:22:43;17.80;78.40
51811;DHT22;52468;40.116;18.296;2023-05-16T02:25:14;17.70;78.30
51811;DHT22;52468;40.116;18.296;2023-05-16T02:27:42;17.60;78.50
51811;DHT22;52468;40.116;18.296;2023-05-16T02:30:10;17.60;78.50
51811;DHT22;52468;40.116;18.296;2023-05-16T02:32:39;17.50;78.50
51811;DHT22;52468;40.116;18.296;2023-05-16T02:35:07;17.50;78.70
51811;DHT22;52468;40.116;18.296;2023-05-16T02:37:36;17.60;78.80
51811;DHT22;52468;40.116;18.296;2023-05-16T02:40:04;17.60;79.00
51811;DHT22;52468;40.116;18.296;2023-05-16T02:42:32;17.50;78.90
51811;DHT22;52468;40.116;18.296;2023-05-16T02:45:00;17.50;78.90
51811;DHT22;52468;40.116;18.296;2023-05-16T02:47:29;17.60;79.10
51811;DHT22;52468;40.116;18.296;2023-05-16T02:49:59;17.60;79.00
51811;DHT22;52468;40.116;18.296;2023-05-16T02:52:27;17.60;78.90
51811;DHT22;52468;40.116;18.296;2023-05-16T02:54:55;17.60;78.70
51811;DHT22;52468;40.116;18.296;2023-05-16T02:57:31;17.50;78.80
51811;DHT22;52468;40.116;18.296;2023-05-16T02:59:58;17.50;78.80
51811;DHT22;52468;40.116;18.296;2023-05-16T03:02:26;17.50;79.00
51811;DHT22;52468;40.116;18.296;2023-05-16T03:04:54;17.50;79.10
51811;DHT22;52468;40.116;18.296;2023-05-16T03:07:22;17.40;79.30
51811;DHT22;52468;40.116;18.296;2023-05-16T03:09:50;17.50;79.30
51811;DHT22;52468;40.116;18.296;2023-05-16T03:12:18;17.50;79.20
51811;DHT22;52468;40.116;18.296;2023-05-16T03:14:46;17.50;78.70
51811;DHT22;52468;40.116;18.296;2023-05-16T03:17:14;17.60;78.60
51811;DHT22;52468;40.116;18.296;2023-05-16T03:19:42;17.60;78.70
51811;DHT22;52468;40.116;18.296;2023-05-16T03:22:09;17.60;78.70
51811;DHT22;52468;40.116;18.296;2023-05-16T03:24:37;17.60;78.30
51811;DHT22;52468;40.116;18.296;2023-05-16T03:27:05;17.60;78.10
51811;DHT22;52468;40.116;18.296;2023-05-16T03:29:33;17.60;77.80
51811;DHT22;52468;40.116;18.296;2023-05-16T03:32:01;17.60;77.90
51811;DHT22;52468;40.116;18.296;2023-05-16T03:34:30;17.70;77.50
51811;DHT22;52468;40.116;18.296;2023-05-16T03:36:57;17.60;77.60
51811;DHT22;52468;40.116;18.296;2023-05-16T03:39:26;17.60;77.70
51811;DHT22;52468;40.116;18.296;2023-05-16T03:41:53;17.60;77.60
51811;DHT22;52468;40.116;18.296;2023-05-16T03:44:23;17.80;77.40
51811;DHT22;52468;40.116;18.296;2023-05-16T03:46:51;17.80;77.20
51811;DHT22;52468;40.116;18.296;2023-05-16T03:49:25;18.00;77.00
51811;DHT22;52468;40.116;18.296;2023-05-16T03:51:56;18.00;76.60
51811;DHT22;52468;40.116;18.296;2023-05-16T03:54:24;18.00;76.40
51811;DHT22;52468;40.116;18.296;2023-05-16T03:56:52;18.00;76.50
51811;DHT22;52468;40.116;18.296;2023-05-16T03:59:20;18.00;76.40
51811;DHT22;52468;40.116;18.296;2023-05-16T04:01:49;18.00;76.40
51811;DHT22;52468;40.116;18.296;2023-05-16T04:04:17;18.00;76.50
51811;DHT22;52468;40.116;18.296;2023-05-16T04:06:44;18.00;76.30
51811;DHT22;52468;40.116;18.296;2023-05-16T04:09:12;18.00;76.20
51811;DHT22;52468;40.116;18.296;2023-05-16T04:11:40;18.00;76.40
51811;DHT22;52468;40.116;18.296;2023-05-16T04:14:08;17.90;76.70
51811;DHT22;52468;40.116;18.296;2023-05-16T04:16:36;18.00;76.40
51811;DHT22;52468;40.116;18.296;2023-05-16T04:19:03;18.10;76.30
51811;DHT22;52468;40.116;18.296;2023-05-16T04:21:31;18.10;76.50
51811;DHT22;52468;40.116;18.296;2023-05-16T04:24:00;18.10;76.40
51811;DHT22;52468;40.116;18.296;2023-05-16T04:26:28;18.20;76.30
51811;DHT22;52468;40.116;18.296;2023-05-16T04:28:56;18.30;76.10
51811;DHT22;52468;40.116;18.296;2023-05-16T04:31:25;18.60;75.50
51811;DHT22;52468;40.116;18.296;2023-05-16T04:33:53;18.70;74.90
51811;DHT22;52468;40.116;18.296;2023-05-16T04:36:21;18.90;74.00
51811;DHT22;52468;40.116;18.296;2023-05-16T04:38:48;18.90;73.50
51811;DHT22;52468;40.116;18.296;2023-05-16T04:41:16;19.00;73.70
51811;DHT22;52468;40.116;18.296;2023-05-16T04:43:44;19.20;73.10
51811;DHT22;52468;40.116;18.296;2023-05-16T04:46:12;19.30;72.90
51811;DHT22;52468;40.116;18.296;2023-05-16T04:48:42;19.50;72.70
51811;DHT22;52468;40.116;18.296;2023-05-16T04:51:09;19.60;72.20
51811;DHT22;52468;40.116;18.296;2023-05-16T04:53:38;19.60;71.50
51811;DHT22;52468;40.116;18.296;2023-05-16T04:56:06;19.60;71.30
51811;DHT22;52468;40.116;18.296;2023-05-16T04:58:34;19.50;71.30
51811;DHT22;52468;40.116;18.296;2023-05-16T05:01:02;19.50;71.00
51811;DHT22;52468;40.116;18.296;2023-05-16T05:03:30;19.50;70.90
51811;DHT22;52468;40.116;18.296;2023-05-16T05:05:58;19.50;71.20
51811;DHT22;52468;40.116;18.296;2023-05-16T05:08:26;19.60;71.10
51811;DHT22;52468;40.116;18.296;2023-05-16T05:10:55;19.70;70.70
51811;DHT22;52468;40.116;18.296;2023-05-16T05:13:22;19.80;70.50
51811;DHT22;52468;40.116;18.296;2023-05-16T05:15:50;19.80;70.30
51811;DHT22;52468;40.116;18.296;2023-05-16T05:18:18;19.80;70.20
51811;DHT22;52468;40.116;18.296;2023-05-16T05:20:46;19.80;70.10
51811;DHT22;52468;40.116;18.296;2023-05-16T05:23:14;19.70;70.50
51811;DHT22;52468;40.116;18.296;2023-05-16T05:25:42;19.70;70.70
51811;DHT22;52468;40.116;18.296;2023-05-16T05:28:10;19.70;71.40
51811;DHT22;52468;40.116;18.296;2023-05-16T05:30:38;19.90;71.60
51811;DHT22;52468;40.116;18.296;2023-05-16T05:33:09;20.30;70.00
51811;DHT22;52468;40.116;18.296;2023-05-16T05:35:37;20.30;69.10
51811;DHT22;52468;40.116;18.296;2023-05-16T05:38:05;20.50;67.60
51811;DHT22;52468;40.116;18.296;2023-05-16T05:40:33;20.30;67.10
51811;DHT22;52468;40.116;18.296;2023-05-16T05:43:01;20.20;66.80
51811;DHT22;52468;40.116;18.296;2023-05-16T05:45:28;19.90;67.40
51811;DHT22;52468;40.116;18.296;2023-05-16T05:47:57;19.80;68.10
51811;DHT22;52468;40.116;18.296;2023-05-16T05:50:24;19.80;68.40
51811;DHT22;52468;40.116;18.296;2023-05-16T05:52:53;19.90;68.50
51811;DHT22;52468;40.116;18.296;2023-05-16T05:55:21;20.00;67.90
51811;DHT22;52468;40.116;18.296;2023-05-16T05:57:49;20.00;68.20
51811;DHT22;52468;40.116;18.296;2023-05-16T06:00:17;20.10;68.30
51811;DHT22;52468;40.116;18.296;2023-05-16T06:02:45;20.00;68.80
51811;DHT22;52468;40.116;18.296;2023-05-16T06:05:13;19.90;69.60
51811;DHT22;52468;40.116;18.296;2023-05-16T06:07:41;19.70;70.60
51811;DHT22;52468;40.116;18.296;2023-05-16T06:10:09;19.60;70.80
51811;DHT22;52468;40.116;18.296;2023-05-16T06:12:37;19.60;70.90
51811;DHT22;52468;40.116;18.296;2023-05-16T06:15:05;19.60;70.90
51811;DHT22;52468;40.116;18.296;2023-05-16T06:17:33;19.80;71.00
51811;DHT22;52468;40.116;18.296;2023-05-16T06:20:02;20.00;70.20
51811;DHT22;52468;40.116;18.296;2023-05-16T06:22:30;20.10;69.70
51811;DHT22;52468;40.116;18.296;2023-05-16T06:24:58;20.10;70.00
51811;DHT22;52468;40.116;18.296;2023-05-16T06:27:26;20.20;70.90
51811;DHT22;52468;40.116;18.296;2023-05-16T06:29:54;20.50;70.70
51811;DHT22;52468;40.116;18.296;2023-05-16T06:32:21;20.60;70.20
51811;DHT22;52468;40.116;18.296;2023-05-16T06:34:49;21.00;69.30
51811;DHT22;52468;40.116;18.296;2023-05-16T06:37:17;21.10;68.30
51811;DHT22;52468;40.116;18.296;2023-05-16T06:39:45;21.20;67.80
51811;DHT22;52468;40.116;18.296;2023-05-16T06:42:13;21.30;66.80
51811;DHT22;52468;40.116;18.296;2023-05-16T06:44:42;21.30;66.90
51811;DHT22;52468;40.116;18.296;2023-05-16T06:47:10;21.60;66.70
51811;DHT22;52468;40.116;18.296;2023-05-16T06:49:37;22.00;64.20
51811;DHT22;52468;40.116;18.296;2023-05-16T06:52:05;22.30;62.60
51811;DHT22;52468;40.116;18.296;2023-05-16T06:54:33;22.50;61.40
51811;DHT22;52468;40.116;18.296;2023-05-16T06:57:01;22.60;60.40
51811;DHT22;52468;40.116;18.296;2023-05-16T06:59:31;22.60;59.10
51811;DHT22;52468;40.116;18.296;2023-05-16T07:01:59;22.70;58.50
51811;DHT22;52468;40.116;18.296;2023-05-16T07:04:27;22.80;58.60
51811;DHT22;52468;40.116;18.296;2023-05-16T07:06:55;22.90;58.70
51811;DHT22;52468;40.116;18.296;2023-05-16T07:09:23;23.30;57.80
51811;DHT22;52468;40.116;18.296;2023-05-16T07:11:51;23.50;56.40
51811;DHT22;52468;40.116;18.296;2023-05-16T07:14:19;23.50;55.70
51811;DHT22;52468;40.116;18.296;2023-05-16T07:16:47;23.40;56.30
51811;DHT22;52468;40.116;18.296;2023-05-16T07:19:15;23.50;56.20
51811;DHT22;52468;40.116;18.296;2023-05-16T07:21:43;23.30;55.90
51811;DHT22;52468;40.116;18.296;2023-05-16T07:24:11;23.00;58.00
51811;DHT22;52468;40.116;18.296;2023-05-16T07:26:39;22.90;60.40
51811;DHT22;52468;40.116;18.296;2023-05-16T07:29:07;23.20;59.70
51811;DHT22;52468;40.116;18.296;2023-05-16T07:31:35;23.40;57.70
51811;DHT22;52468;40.116;18.296;2023-05-16T07:34:03;23.30;57.60
51811;DHT22;52468;40.116;18.296;2023-05-16T07:36:31;23.30;58.20
51811;DHT22;52468;40.116;18.296;2023-05-16T07:38:59;23.50;57.20
51811;DHT22;52468;40.116;18.296;2023-05-16T07:41:30;23.30;57.20
51811;DHT22;52468;40.116;18.296;2023-05-16T07:43:58;23.20;57.30
51811;DHT22;52468;40.116;18.296;2023-05-16T07:46:26;23.40;56.80
51811;DHT22;52468;40.116;18.296;2023-05-16T07:48:54;23.50;56.40
51811;DHT22;52468;40.116;18.296;2023-05-16T07:51:22;23.40;56.40
51811;DHT22;52468;40.116;18.296;2023-05-16T07:53:50;23.50;55.60
51811;DHT22;52468;40.116;18.296;2023-05-16T07:56:18;23.50;55.70
51811;DHT22;52468;40.116;18.296;2023-05-16T07:58:47;23.40;55.70
51811;DHT22;52468;40.116;18.296;2023-05-16T08:01:15;23.40;55.70
51811;DHT22;52468;40.116;18.296;2023-05-16T08:03:43;23.30;55.90
51811;DHT22;52468;40.116;18.296;2023-05-16T08:06:11;23.20;56.10
51811;DHT22;52468;40.116;18.296;2023-05-16T08:08:39;22.90;57.10
51811;DHT22;52468;40.116;18.296;2023-05-16T08:11:07;22.50;58.80
51811;DHT22;52468;40.116;18.296;2023-05-16T08:13:35;22.50;58.70
51811;DHT22;52468;40.116;18.296;2023-05-16T08:16:03;22.50;58.40
51811;DHT22;52468;40.116;18.296;2023-05-16T08:18:31;22.40;57.80
51811;DHT22;52468;40.116;18.296;2023-05-16T08:20:59;22.50;58.00
51811;DHT22;52468;40.116;18.296;2023-05-16T08:23:27;23.00;56.70
51811;DHT22;52468;40.116;18.296;2023-05-16T08:25:55;23.30;55.50
51811;DHT22;52468;40.116;18.296;2023-05-16T08:28:23;23.80;53.90
51811;DHT22;52468;40.116;18.296;2023-05-16T08:30:51;23.90;51.70
51811;DHT22;52468;40.116;18.296;2023-05-16T08:33:19;23.70;52.30
51811;DHT22;52468;40.116;18.296;2023-05-16T08:35:47;23.50;53.50
51811;DHT22;52468;40.116;18.296;2023-05-16T08:38:15;23.40;53.90
51811;DHT22;52468;40.116;18.296;2023-05-16T08:40:43;23.20;54.50
51811;DHT22;52468;40.116;18.296;2023-05-16T08:43:12;23.10;55.00
51811;DHT22;52468;40.116;18.296;2023-05-16T08:45:40;23.00;55.80
51811;DHT22;52468;40.116;18.296;2023-05-16T08:48:09;23.00;56.60
51811;DHT22;52468;40.116;18.296;2023-05-16T08:50:37;22.80;57.70
51811;DHT22;52468;40.116;18.296;2023-05-16T08:53:07;23.00;57.50
51811;DHT22;52468;40.116;18.296;2023-05-16T08:55:37;23.10;57.30
51811;DHT22;52468;40.116;18.296;2023-05-16T08:58:05;23.00;58.40
51811;DHT22;52468;40.116;18.296;2023-05-16T09:00:34;23.20;58.60
51811;DHT22;52468;40.116;18.296;2023-05-16T09:03:05;23.80;58.90
51811;DHT22;52468;40.116;18.296;2023-05-16T09:05:33;24.20;57.60
51811;DHT22;52468;40.116;18.296;2023-05-16T09:08:01;24.60;58.00
51811;DHT22;52468;40.116;18.296;2023-05-16T09:10:29;24.40;57.60
51811;DHT22;52468;40.116;18.296;2023-05-16T09:12:57;24.00;59.60
51811;DHT22;52468;40.116;18.296;2023-05-16T09:15:31;23.90;60.70
51811;DHT22;52468;40.116;18.296;2023-05-16T09:18:00;24.00;60.30
51811;DHT22;52468;40.116;18.296;2023-05-16T09:20:29;24.00;58.50
51811;DHT22;52468;40.116;18.296;2023-05-16T09:22:58;23.70;59.10
51811;DHT22;52468;40.116;18.296;2023-05-16T09:25:29;23.80;59.30
51811;DHT22;52468;40.116;18.296;2023-05-16T09:28:00;24.00;58.70
51811;DHT22;52468;40.116;18.296;2023-05-16T09:30:30;24.20;56.70
51811;DHT22;52468;40.116;18.296;2023-05-16T09:32:58;24.30;54.40
51811;DHT22;52468;40.116;18.296;2023-05-16T09:35:26;24.50;53.20
51811;DHT22;52468;40.116;18.296;2023-05-16T09:37:57;24.40;52.80
51811;DHT22;52468;40.116;18.296;2023-05-16T09:40:25;24.40;52.70
51811;DHT22;52468;40.116;18.296;2023-05-16T09:43:04;24.40;52.70
51811;DHT22;52468;40.116;18.296;2023-05-16T09:45:33;24.60;52.60
51811;DHT22;52468;40.116;18.296;2023-05-16T09:48:06;24.90;51.70
51811;DHT22;52468;40.116;18.296;2023-05-16T09:50:36;25.20;51.00
51811;DHT22;52468;40.116;18.296;2023-05-16T09:53:04;25.40;50.70
51811;DHT22;52468;40.116;18.296;2023-05-16T09:55:32;25.30;50.40
51811;DHT22;52468;40.116;18.296;2023-05-16T09:58:00;25.50;51.00
51811;DHT22;52468;40.116;18.296;2023-05-16T10:00:29;25.50;50.60
51811;DHT22;52468;40.116;18.296;2023-05-16T10:02:59;25.60;50.00
51811;DHT22;52468;40.116;18.296;2023-05-16T10:05:30;25.90;49.00
51811;DHT22;52468;40.116;18.296;2023-05-16T10:07:58;26.40;47.70
51811;DHT22;52468;40.116;18.296;2023-05-16T10:10:35;26.30;47.60
51811;DHT22;52468;40.116;18.296;2023-05-16T10:13:06;26.00;48.50
51811;DHT22;52468;40.116;18.296;2023-05-16T10:15:36;25.90;49.00
51811;DHT22;52468;40.116;18.296;2023-05-16T10:18:06;25.50;49.80
51811;DHT22;52468;40.116;18.296;2023-05-16T10:20:40;25.70;50.20
51811;DHT22;52468;40.116;18.296;2023-05-16T10:23:15;26.00;48.90
51811;DHT22;52468;40.116;18.296;2023-05-16T10:25:44;26.00;46.80
51811;DHT22;52468;40.116;18.296;2023-05-16T10:28:16;25.90;47.00
51811;DHT22;52468;40.116;18.296;2023-05-16T10:30:45;25.90;47.20
51811;DHT22;52468;40.116;18.296;2023-05-16T10:33:15;26.00;46.00
51811;DHT22;52468;40.116;18.296;2023-05-16T10:35:44;26.10;44.80
51811;DHT22;52468;40.116;18.296;2023-05-16T10:38:17;26.10;43.90
51811;DHT22;52468;40.116;18.296;2023-05-16T10:40:47;26.10;44.50
51811;DHT22;52468;40.116;18.296;2023-05-16T10:43:25;26.40;43.60
51811;DHT22;52468;40.116;18.296;2023-05-16T10:46:01;26.70;43.70
51811;DHT22;52468;40.116;18.296;2023-05-16T10:48:31;27.00;42.70
51811;DHT22;52468;40.116;18.296;2023-05-16T10:51:01;27.30;41.90
51811;DHT22;52468;40.116;18.296;2023-05-16T10:53:36;27.80;40.90
51811;DHT22;52468;40.116;18.296;2023-05-16T10:56:08;27.90;39.60
51811;DHT22;52468;40.116;18.296;2023-05-16T11:01:33;27.50;40.10
51811;DHT22;52468;40.116;18.296;2023-05-16T11:04:04;26.90;40.50
51811;DHT22;52468;40.116;18.296;2023-05-16T11:11:46;26.80;41.90
51811;DHT22;52468;40.116;18.296;2023-05-16T11:17:09;27.30;41.30
51811;DHT22;52468;40.116;18.296;2023-05-16T11:19:49;27.30;40.80
51811;DHT22;52468;40.116;18.296;2023-05-16T11:22:23;27.20;41.40
51811;DHT22;52468;40.116;18.296;2023-05-16T11:27:34;27.50;41.10
51811;DHT22;52468;40.116;18.296;2023-05-16T11:32:34;26.60;43.40
51811;DHT22;52468;40.116;18.296;2023-05-16T11:35:04;26.70;43.60
51811;DHT22;52468;40.116;18.296;2023-05-16T11:37:32;27.10;42.50
51811;DHT22;52468;40.116;18.296;2023-05-16T11:40:01;27.20;41.90
51811;DHT22;52468;40.116;18.296;2023-05-16T11:42:33;27.10;42.40
51811;DHT22;52468;40.116;18.296;2023-05-16T11:45:11;27.60;42.10
51811;DHT22;52468;40.116;18.296;2023-05-16T11:47:43;28.00;40.60
51811;DHT22;52468;40.116;18.296;2023-05-16T11:50:17;28.30;40.40
51811;DHT22;52468;40.116;18.296;2023-05-16T11:52:49;28.20;40.80
51811;DHT22;52468;40.116;18.296;2023-05-16T11:55:21;27.90;42.20
51811;DHT22;52468;40.116;18.296;2023-05-16T11:57:56;27.40;43.30
51811;DHT22;52468;40.116;18.296;2023-05-16T12:00:26;26.90;44.50
51811;DHT22;52468;40.116;18.296;2023-05-16T12:02:59;26.90;44.60
51811;DHT22;52468;40.116;18.296;2023-05-16T12:05:28;26.50;45.60
51811;DHT22;52468;40.116;18.296;2023-05-16T12:07:58;26.30;46.50
51811;DHT22;52468;40.116;18.296;2023-05-16T12:10:26;26.40;46.90
51811;DHT22;52468;40.116;18.296;2023-05-16T12:12:54;26.00;47.40
51811;DHT22;52468;40.116;18.296;2023-05-16T12:15:22;26.00;48.00
51811;DHT22;52468;40.116;18.296;2023-05-16T12:17:50;25.80;47.50
51811;DHT22;52468;40.116;18.296;2023-05-16T12:20:18;25.70;47.90
51811;DHT22;52468;40.116;18.296;2023-05-16T12:22:46;25.50;48.50
51811;DHT22;52468;40.116;18.296;2023-05-16T12:25:24;25.70;48.40
51811;DHT22;52468;40.116;18.296;2023-05-16T12:27:54;26.20;46.20
51811;DHT22;52468;40.116;18.296;2023-05-16T12:30:23;26.70;44.80
51811;DHT22;52468;40.116;18.296;2023-05-16T13:04:53;27.70;40.00
51811;DHT22;52468;40.116;18.296;2023-05-16T13:09:49;33.80;29.30
51811;DHT22;52468;40.116;18.296;2023-05-16T13:34:31;36.90;24.60
51811;DHT22;52468;40.116;18.296;2023-05-16T13:36:58;36.50;24.60
51811;DHT22;52468;40.116;18.296;2023-05-16T13:39:26;36.30;24.50
51811;DHT22;52468;40.116;18.296;2023-05-16T13:41:54;36.00;25.10
51811;DHT22;52468;40.116;18.296;2023-05-16T13:44:22;35.80;25.20
51811;DHT22;52468;40.116;18.296;2023-05-16T13:46:50;35.80;25.70
51811;DHT22;52468;40.116;18.296;2023-05-16T13:49:18;36.10;25.60
51811;DHT22;52468;40.116;18.296;2023-05-16T13:51:46;36.30;24.70
51811;DHT22;52468;40.116;18.296;2023-05-16T13:56:43;37.20;24.90
51811;DHT22;52468;40.116;18.296;2023-05-16T13:59:11;37.20;24.60
51811;DHT22;52468;40.116;18.296;2023-05-16T14:01:41;37.10;25.00
51811;DHT22;52468;40.116;18.296;2023-05-16T14:04:09;37.20;25.40
51811;DHT22;52468;40.116;18.296;2023-05-16T14:06:38;37.30;25.70
51811;DHT22;52468;40.116;18.296;2023-05-16T14:09:06;37.30;25.80
51811;DHT22;52468;40.116;18.296;2023-05-16T14:11:34;37.10;25.60
51811;DHT22;52468;40.116;18.296;2023-05-16T14:14:02;37.00;26.00
51811;DHT22;52468;40.116;18.296;2023-05-16T14:16:30;37.00;26.40
51811;DHT22;52468;40.116;18.296;2023-05-16T14:18:59;36.80;26.20
51811;DHT22;52468;40.116;18.296;2023-05-16T14:21:27;36.00;27.40
51811;DHT22;52468;40.116;18.296;2023-05-16T14:23:55;35.70;27.50
51811;DHT22;52468;40.116;18.296;2023-05-16T14:26:23;34.90;28.50
51811;DHT22;52468;40.116;18.296;2023-05-16T14:28:52;35.80;28.00
51811;DHT22;52468;40.116;18.296;2023-05-16T14:31:20;37.10;26.50
51811;DHT22;52468;40.116;18.296;2023-05-16T14:33:47;37.20;25.80
51811;DHT22;52468;40.116;18.296;2023-05-16T14:36:18;36.90;26.00
51811;DHT22;52468;40.116;18.296;2023-05-16T14:38:47;36.40;26.60
51811;DHT22;52468;40.116;18.296;2023-05-16T14:41:15;36.10;27.30
51811;DHT22;52468;40.116;18.296;2023-05-16T14:43:46;36.20;27.50
51811;DHT22;52468;40.116;18.296;2023-05-16T14:46:14;36.30;27.50
51811;DHT22;52468;40.116;18.296;2023-05-16T14:48:42;36.70;26.60
51811;DHT22;52468;40.116;18.296;2023-05-16T14:51:10;36.20;27.00
51811;DHT22;52468;40.116;18.296;2023-05-16T14:53:38;36.40;26.80
51811;DHT22;52468;40.116;18.296;2023-05-16T14:56:06;36.30;27.00
51811;DHT22;52468;40.116;18.296;2023-05-16T14:58:34;36.40;27.10
51811;DHT22;52468;40.116;18.296;2023-05-16T15:01:02;36.30;27.20
51811;DHT22;52468;40.116;18.296;2023-05-16T15:03:30;35.90;28.00
51811;DHT22;52468;40.116;18.296;2023-05-16T15:06:02;36.10;27.70
51811;DHT22;52468;40.116;18.296;2023-05-16T15:08:34;35.30;28.60
51811;DHT22;52468;40.116;18.296;2023-05-16T15:11:02;34.50;29.70
51811;DHT22;52468;40.116;18.296;2023-05-16T15:13:30;34.20;30.40
51811;DHT22;52468;40.116;18.296;2023-05-16T15:15:58;35.10;29.60
51811;DHT22;52468;40.116;18.296;2023-05-16T15:18:25;35.10;28.80
51811;DHT22;52468;40.116;18.296;2023-05-16T15:20:53;34.80;29.30
51811;DHT22;52468;40.116;18.296;2023-05-16T15:23:21;35.20;29.20
51811;DHT22;52468;40.116;18.296;2023-05-16T15:25:49;35.90;28.40
51811;DHT22;52468;40.116;18.296;2023-05-16T15:28:18;36.20;27.10
51811;DHT22;52468;40.116;18.296;2023-05-16T15:30:49;36.20;27.00
51811;DHT22;52468;40.116;18.296;2023-05-16T15:33:17;36.20;27.30
51811;DHT22;52468;40.116;18.296;2023-05-16T15:35:45;36.20;26.80
51811;DHT22;52468;40.116;18.296;2023-05-16T15:38:12;36.20;27.10
51811;DHT22;52468;40.116;18.296;2023-05-16T15:40:40;36.50;26.50
51811;DHT22;52468;40.116;18.296;2023-05-16T15:43:08;36.20;26.60
51811;DHT22;52468;40.116;18.296;2023-05-16T15:45:36;35.10;28.10
51811;DHT22;52468;40.116;18.296;2023-05-16T15:48:06;35.00;28.50
51811;DHT22;52468;40.116;18.296;2023-05-16T15:50:34;34.90;28.50
51811;DHT22;52468;40.116;18.296;2023-05-16T15:53:02;34.30;29.40
51811;DHT22;52468;40.116;18.296;2023-05-16T15:55:30;34.50;28.90
51811;DHT22;52468;40.116;18.296;2023-05-16T15:57:58;34.90;28.70
51811;DHT22;52468;40.116;18.296;2023-05-16T16:00:26;35.60;27.90
51811;DHT22;52468;40.116;18.296;2023-05-16T16:02:54;36.50;27.00
51811;DHT22;52468;40.116;18.296;2023-05-16T16:05:22;37.00;26.40
51811;DHT22;52468;40.116;18.296;2023-05-16T16:07:50;37.10;26.30
51811;DHT22;52468;40.116;18.296;2023-05-16T16:10:18;37.00;26.10
51811;DHT22;52468;40.116;18.296;2023-05-16T16:15:28;35.50;27.80
51811;DHT22;52468;40.116;18.296;2023-05-16T16:17:58;34.40;29.30
51811;DHT22;52468;40.116;18.296;2023-05-16T16:20:26;34.10;29.80
51811;DHT22;52468;40.116;18.296;2023-05-16T16:22:54;33.90;30.10
51811;DHT22;52468;40.116;18.296;2023-05-16T16:25:22;33.10;30.90
51811;DHT22;52468;40.116;18.296;2023-05-16T16:27:51;31.30;33.50
51811;DHT22;52468;40.116;18.296;2023-05-16T16:30:19;29.50;36.50
51811;DHT22;52468;40.116;18.296;2023-05-16T16:32:47;28.30;39.10
51811;DHT22;52468;40.116;18.296;2023-05-16T16:35:15;27.40;41.00
51811;DHT22;52468;40.116;18.296;2023-05-16T16:37:43;26.60;43.10
51811;DHT22;52468;40.116;18.296;2023-05-16T16:40:18;25.70;45.30
51811;DHT22;52468;40.116;18.296;2023-05-16T16:42:46;24.90;47.60
51811;DHT22;52468;40.116;18.296;2023-05-16T16:45:13;24.40;49.20
51811;DHT22;52468;40.116;18.296;2023-05-16T16:50:10;23.50;52.60
51811;DHT22;52468;40.116;18.296;2023-05-16T16:52:39;23.20;53.80